Terminal Aerodrome Forecast
Issued by NWS

Home | Current Version | Previous Version | Graphics & Text | Print | Product List | Glossary On
Versions: 1 2 3 4 5 6 7 8 9 10 11 12 13 14 15 16 17 18 19 20 21
652
FTUS43 KBIS 241130
TAFDIK
TAF
KDIK 241130Z 2412/2512 01008KT 1/2SM FG OVC002
     FM241600 13010KT P6SM BKN005
     FM241900 19013KT P6SM BKN010
     FM242100 28016G22KT P6SM BKN015
     FM250000 32018G27KT 3SM -SHRA OVC008
     FM250700 31022G31KT 6SM -SHRA OVC012=

USA.gov is the U.S. government's official web portal to all federal, state and local government web resources and services.